Time;durP1;ratioP1;P1;durP2;ratioP2;P2;SDS_P1;SDS_P2;PMS_P1;PMS_P2;Temp;Humidity;BMP_temperature;BMP_pressure;BME280_temperature;BME280_humidity;BME280_pressure;Samples;Min_cycle;Max_cycle;Signal;HPM_P1;HPM_P2
2022/02/15 00:00:00;;;;;;;7.17;4.80;;;;;;;;;;5053234;28;20277;-81
2022/02/15 00:02:27;;;;;;;8.57;7.23;;;;;;;;;;5053286;28;20228;-81
2022/02/15 00:04:54;;;;;;;8.60;7.23;;;;;;;;;;5052933;28;20197;-81
2022/02/15 00:07:22;;;;;;;12.20;9.20;;;;;;;;;;5053144;28;20241;-82
2022/02/15 00:09:49;;;;;;;11.60;9.97;;;;;;;;;;5053112;28;20281;-81
2022/02/15 00:12:18;;;;;;;15.93;11.07;;;;;;;;;;5053044;28;20202;-81
2022/02/15 00:14:45;;;;;;;14.90;12.23;;;;;;;;;;5052756;28;20197;-81
2022/02/15 00:17:12;;;;;;;21.83;13.67;;;;;;;;;;5052612;28;20209;-81
2022/02/15 00:19:40;;;;;;;15.13;12.17;;;;;;;;;;5052691;28;20200;-81
2022/02/15 00:22:07;;;;;;;15.13;11.20;;;;;;;;;;5052726;28;20285;-81
2022/02/15 00:24:34;;;;;;;13.17;9.83;;;;;;;;;;5052581;28;20204;-81
2022/02/15 00:27:01;;;;;;;10.93;8.07;;;;;;;;;;5052430;28;20198;-81
2022/02/15 00:29:30;;;;;;;10.47;7.43;;;;;;;;;;5052543;28;20205;-81
2022/02/15 00:31:57;;;;;;;9.60;8.03;;;;;;;;;;5052267;28;20226;-81
2022/02/15 00:34:25;;;;;;;8.37;5.87;;;;;;;;;;5052730;28;20219;-81
2022/02/15 00:36:52;;;;;;;8.60;6.80;;;;;;;;;;5052068;28;20229;-81
2022/02/15 00:39:19;;;;;;;8.37;6.77;;;;;;;;;;5052201;28;20198;-80
2022/02/15 00:41:46;;;;;;;11.43;8.57;;;;;;;;;;5052183;28;20198;-80
2022/02/15 00:44:14;;;;;;;9.43;5.70;;;;;;;;;;5052223;28;20648;-81
2022/02/15 00:46:42;;;;;;;16.00;10.57;;;;;;;;;;5052441;28;20194;-80
2022/02/15 00:49:10;;;;;;;8.70;6.50;;;;;;;;;;5052386;28;20220;-81
2022/02/15 00:51:37;;;;;;;9.27;5.70;;;;;;;;;;5051773;28;20226;-81
2022/02/15 00:54:04;;;;;;;5.23;4.73;;;;;;;;;;5052309;28;20236;-80
2022/02/15 00:56:31;;;;;;;8.47;5.50;;;;;;;;;;5052346;28;20224;-80
2022/02/15 00:58:59;;;;;;;11.73;9.63;;;;;;;;;;5052429;28;20218;-81
2022/02/15 01:01:26;;;;;;;14.00;11.53;;;;;;;;;;5052228;28;20204;-80
2022/02/15 01:03:55;;;;;;;10.73;9.10;;;;;;;;;;5052329;28;20639;-80
2022/02/15 01:06:22;;;;;;;9.50;7.07;;;;;;;;;;5052125;28;20213;-81
2022/02/15 01:08:49;;;;;;;8.30;6.73;;;;;;;;;;5052051;28;20198;-81
2022/02/15 01:11:16;;;;;;;9.03;6.83;;;;;;;;;;5051774;28;20222;-81
2022/02/15 01:13:44;;;;;;;10.27;8.43;;;;;;;;;;5051889;28;20202;-80
2022/02/15 01:16:12;;;;;;;10.37;7.83;;;;;;;;;;5052063;28;20202;-80
2022/02/15 01:18:40;;;;;;;9.13;6.10;;;;;;;;;;5051905;28;20198;-81
2022/02/15 01:21:08;;;;;;;7.20;5.50;;;;;;;;;;5051749;28;20197;-81
2022/02/15 01:23:36;;;;;;;8.13;6.03;;;;;;;;;;5051787;28;20201;-80
2022/02/15 01:26:04;;;;;;;8.50;6.73;;;;;;;;;;5051805;28;20198;-80
2022/02/15 01:28:34;;;;;;;10.03;5.60;;;;;;;;;;5051783;28;20682;-81
2022/02/15 01:31:02;;;;;;;6.93;5.70;;;;;;;;;;5052139;28;20590;-80
2022/02/15 01:33:29;;;;;;;7.93;5.37;;;;;;;;;;5051577;28;20670;-80
2022/02/15 01:35:56;;;;;;;10.33;5.27;;;;;;;;;;5051641;28;20197;-80
2022/02/15 01:38:25;;;;;;;6.47;5.37;;;;;;;;;;5051562;28;20197;-80
2022/02/15 01:40:52;;;;;;;8.10;7.07;;;;;;;;;;5051532;28;20284;-80
2022/02/15 01:43:20;;;;;;;8.80;7.53;;;;;;;;;;5051858;28;20198;-80
2022/02/15 01:45:47;;;;;;;9.13;6.87;;;;;;;;;;5051463;28;20198;-81
2022/02/15 01:48:14;;;;;;;9.00;5.80;;;;;;;;;;5051843;28;20616;-80
2022/02/15 01:50:42;;;;;;;9.60;7.30;;;;;;;;;;5055453;28;20225;-81
2022/02/15 01:53:09;;;;;;;8.47;6.40;;;;;;;;;;5055448;28;20240;-80
2022/02/15 01:55:38;;;;;;;9.03;5.40;;;;;;;;;;5055771;28;20583;-80
2022/02/15 01:58:06;;;;;;;5.93;4.93;;;;;;;;;;5055236;28;20204;-80
2022/02/15 02:00:33;;;;;;;7.03;5.57;;;;;;;;;;5055507;28;20229;-80
2022/02/15 02:03:00;;;;;;;6.80;6.10;;;;;;;;;;5055538;28;20289;-80
2022/02/15 02:08:12;;;;;;;7.10;5.93;;;;;;;;;;5055345;28;20267;-80
2022/02/15 02:10:41;;;;;;;9.03;6.07;;;;;;;;;;5055027;28;20257;-80
2022/02/15 02:13:08;;;;;;;6.90;6.20;;;;;;;;;;5055030;28;20202;-80
2022/02/15 02:15:36;;;;;;;6.40;5.43;;;;;;;;;;5055305;28;20277;-80
2022/02/15 02:18:03;;;;;;;9.37;7.03;;;;;;;;;;5054960;28;20229;-80
2022/02/15 02:20:31;;;;;;;7.47;5.37;;;;;;;;;;5055129;28;20563;-81
2022/02/15 02:22:59;;;;;;;5.73;5.00;;;;;;;;;;5055195;28;20229;-81
2022/02/15 02:25:27;;;;;;;9.40;6.77;;;;;;;;;;5055228;28;20202;-81
2022/02/15 02:27:54;;;;;;;15.07;12.77;;;;;;;;;;5054783;28;20578;-81
2022/02/15 02:30:22;;;;;;;13.87;12.40;;;;;;;;;;5055021;28;20280;-81
2022/02/15 02:32:49;;;;;;;13.20;10.13;;;;;;;;;;5054911;28;20316;-80
2022/02/15 02:35:17;;;;;;;9.00;6.63;;;;;;;;;;5054669;28;20281;-80
2022/02/15 02:37:44;;;;;;;8.57;6.27;;;;;;;;;;5054585;28;20234;-81
2022/02/15 02:40:13;;;;;;;8.07;5.87;;;;;;;;;;5054571;28;20198;-80
2022/02/15 02:42:41;;;;;;;7.30;5.17;;;;;;;;;;5054857;28;20200;-80
2022/02/15 02:45:10;;;;;;;9.63;6.33;;;;;;;;;;5054445;28;20203;-80
2022/02/15 02:47:38;;;;;;;5.83;4.87;;;;;;;;;;5054616;28;20281;-80
2022/02/15 02:50:06;;;;;;;5.87;5.20;;;;;;;;;;5054381;28;20201;-80
2022/02/15 02:52:34;;;;;;;6.60;5.93;;;;;;;;;;5054245;28;20238;-81
2022/02/15 02:55:01;;;;;;;8.00;6.27;;;;;;;;;;5054295;28;20198;-80
2022/02/15 02:57:30;;;;;;;9.23;6.30;;;;;;;;;;5054570;28;20193;-80
2022/02/15 02:59:57;;;;;;;8.60;7.63;;;;;;;;;;5054126;28;20197;-80
2022/02/15 03:02:24;;;;;;;8.50;7.53;;;;;;;;;;5054083;28;20722;-80
2022/02/15 03:04:51;;;;;;;8.27;5.23;;;;;;;;;;5054053;28;20200;-80
2022/02/15 03:07:19;;;;;;;6.50;5.73;;;;;;;;;;5054019;28;20197;-80
2022/02/15 03:09:46;;;;;;;8.03;5.93;;;;;;;;;;5054284;28;20198;-80
2022/02/15 03:12:15;;;;;;;7.83;5.50;;;;;;;;;;5054129;28;20225;-80
2022/02/15 03:14:44;;;;;;;10.27;7.60;;;;;;;;;;5054546;28;20275;-80
2022/02/15 03:17:11;;;;;;;11.80;7.80;;;;;;;;;;5053799;28;20292;-80
2022/02/15 03:19:38;;;;;;;14.80;8.90;;;;;;;;;;5054107;28;20205;-80
2022/02/15 03:22:06;;;;;;;13.13;7.83;;;;;;;;;;5053712;28;20198;-80
2022/02/15 03:24:33;;;;;;;13.27;7.77;;;;;;;;;;5054126;28;20284;-81
2022/02/15 03:27:01;;;;;;;21.00;10.67;;;;;;;;;;5053938;28;20201;-80
2022/02/15 03:29:28;;;;;;;17.30;9.53;;;;;;;;;;5053700;28;20194;-80
2022/02/15 03:31:57;;;;;;;10.33;8.23;;;;;;;;;;5053468;28;20225;-80
2022/02/15 03:34:24;;;;;;;12.23;7.67;;;;;;;;;;5053558;28;20293;-80
2022/02/15 03:36:51;;;;;;;9.30;5.93;;;;;;;;;;5053414;28;20200;-80
2022/02/15 03:39:18;;;;;;;7.53;6.20;;;;;;;;;;5053731;28;20202;-80
2022/02/15 03:44:30;;;;;;;18.97;12.60;;;;;;;;;;5053605;28;20228;-80
2022/02/15 03:46:59;;;;;;;30.90;22.17;;;;;;;;;;5053269;28;20198;-80
2022/02/15 03:49:26;;;;;;;16.17;12.47;;;;;;;;;;5053508;28;20281;-81
2022/02/15 03:51:54;;;;;;;12.47;7.87;;;;;;;;;;5053011;28;20229;-80
2022/02/15 03:54:21;;;;;;;8.40;7.17;;;;;;;;;;5053042;28;20288;-80
2022/02/15 03:56:48;;;;;;;10.37;7.17;;;;;;;;;;5053052;28;20205;-80
2022/02/15 03:59:15;;;;;;;7.00;6.30;;;;;;;;;;5053000;28;20198;-80
2022/02/15 04:01:43;;;;;;;8.80;6.50;;;;;;;;;;5052957;28;20196;-80
2022/02/15 04:04:11;;;;;;;8.60;6.07;;;;;;;;;;5052995;28;20209;-81
2022/02/15 04:06:39;;;;;;;12.63;6.67;;;;;;;;;;5052930;28;20252;-81
2022/02/15 04:09:06;;;;;;;9.63;8.43;;;;;;;;;;5053093;28;20281;-80
2022/02/15 04:11:35;;;;;;;10.40;8.97;;;;;;;;;;5052625;28;20312;-80
2022/02/15 04:14:02;;;;;;;7.77;6.73;;;;;;;;;;5052779;28;20197;-81
2022/02/15 04:16:30;;;;;;;7.50;6.60;;;;;;;;;;5052758;28;20198;-80
2022/02/15 04:18:57;;;;;;;8.80;6.90;;;;;;;;;;5052705;28;20197;-81
2022/02/15 04:21:26;;;;;;;11.30;7.13;;;;;;;;;;5052593;28;20193;-80
2022/02/15 04:23:53;;;;;;;9.80;7.73;;;;;;;;;;5052897;28;20220;-80
2022/02/15 04:26:21;;;;;;;8.57;6.50;;;;;;;;;;5052652;28;20202;-80
2022/02/15 04:28:48;;;;;;;12.33;7.47;;;;;;;;;;5052932;28;20198;-80
2022/02/15 04:31:16;;;;;;;39.53;25.50;;;;;;;;;;5052403;28;20200;-80
2022/02/15 04:33:43;;;;;;;19.40;13.57;;;;;;;;;;5052708;28;20198;-80
2022/02/15 04:36:10;;;;;;;9.23;7.10;;;;;;;;;;5050752;28;20204;-80
2022/02/15 04:38:39;;;;;;;16.17;10.97;;;;;;;;;;5051330;28;20663;-80
2022/02/15 04:41:06;;;;;;;11.77;10.40;;;;;;;;;;5051450;28;20202;-80
2022/02/15 04:43:33;;;;;;;11.30;8.57;;;;;;;;;;5051445;28;20202;-80
2022/02/15 04:46:00;;;;;;;12.73;9.47;;;;;;;;;;5051171;28;20292;-80
2022/02/15 04:48:28;;;;;;;14.37;8.10;;;;;;;;;;5050576;28;20289;-80
2022/02/15 04:50:55;;;;;;;9.53;8.27;;;;;;;;;;5050898;28;20201;-80
2022/02/15 04:53:22;;;;;;;22.83;15.10;;;;;;;;;;5050889;28;20312;-81
2022/02/15 04:55:51;;;;;;;20.67;16.00;;;;;;;;;;5051012;28;20975;-80
2022/02/15 04:58:18;;;;;;;13.40;11.17;;;;;;;;;;5051025;28;20224;-80
2022/02/15 05:00:47;;;;;;;16.90;10.67;;;;;;;;;;5050962;28;20224;-80
2022/02/15 05:03:14;;;;;;;12.93;9.50;;;;;;;;;;5048842;28;20255;-82
2022/02/15 05:05:41;;;;;;;15.63;10.20;;;;;;;;;;5050234;28;20597;-81
2022/02/15 05:08:09;;;;;;;12.33;9.93;;;;;;;;;;5050703;28;20571;-82
2022/02/15 05:10:37;;;;;;;15.90;10.30;;;;;;;;;;5050812;28;20208;-81
2022/02/15 05:13:08;;;;;;;14.47;12.90;;;;;;;;;;5051081;28;20878;-81
2022/02/15 05:15:36;;;;;;;12.73;11.10;;;;;;;;;;5050768;28;20281;-81
2022/02/15 05:18:04;;;;;;;11.90;10.67;;;;;;;;;;5050346;28;20202;-81
2022/02/15 05:20:31;;;;;;;11.07;9.57;;;;;;;;;;5050743;28;20194;-81
2022/02/15 05:22:58;;;;;;;14.13;10.17;;;;;;;;;;5051010;28;20198;-81
2022/02/15 05:25:26;;;;;;;15.43;11.43;;;;;;;;;;5054444;28;20600;-82
2022/02/15 05:27:55;;;;;;;23.27;19.67;;;;;;;;;;5055445;28;20200;-82
2022/02/15 05:30:23;;;;;;;30.73;24.73;;;;;;;;;;5055876;28;20204;-82
2022/02/15 05:32:51;;;;;;;17.77;15.87;;;;;;;;;;5055766;28;20229;-82
2022/02/15 05:35:18;;;;;;;22.00;17.90;;;;;;;;;;5055862;28;20204;-82
2022/02/15 05:37:46;;;;;;;20.63;15.60;;;;;;;;;;5055653;28;20292;-81
2022/02/15 05:40:15;;;;;;;14.70;13.17;;;;;;;;;;5055916;28;20228;-82
2022/02/15 05:42:42;;;;;;;14.13;11.10;;;;;;;;;;5055897;28;20202;-81
2022/02/15 05:45:11;;;;;;;13.63;12.23;;;;;;;;;;5055524;28;20288;-82
2022/02/15 05:47:39;;;;;;;18.00;14.30;;;;;;;;;;5055858;28;20588;-82
2022/02/15 05:52:51;;;;;;;14.37;12.27;;;;;;;;;;5055642;28;20232;-82
2022/02/15 05:55:19;;;;;;;14.00;11.70;;;;;;;;;;5055414;28;20206;-81
2022/02/15 05:57:46;;;;;;;14.07;11.33;;;;;;;;;;5055084;28;20197;-82
2022/02/15 06:00:15;;;;;;;12.73;10.40;;;;;;;;;;5055363;28;20204;-82
2022/02/15 06:02:45;;;;;;;14.37;12.40;;;;;;;;;;5055280;28;20198;-82
2022/02/15 06:05:12;;;;;;;12.80;10.87;;;;;;;;;;5055194;28;20210;-82
2022/02/15 06:07:39;;;;;;;16.70;13.00;;;;;;;;;;5048801;28;20205;-81
2022/02/15 06:10:07;;;;;;;28.50;21.57;;;;;;;;;;5045728;28;20218;-82
2022/02/15 06:12:34;;;;;;;21.70;16.83;;;;;;;;;;5035017;28;20608;-81
2022/02/15 06:15:01;;;;;;;13.90;12.33;;;;;;;;;;5035598;28;20654;-82
2022/02/15 06:17:28;;;;;;;12.40;10.80;;;;;;;;;;5035356;28;20687;-82
2022/02/15 06:19:57;;;;;;;17.07;12.00;;;;;;;;;;5035237;28;20587;-82
2022/02/15 06:22:24;;;;;;;17.03;12.40;;;;;;;;;;5034920;28;20198;-82
2022/02/15 06:24:51;;;;;;;18.20;15.10;;;;;;;;;;5034873;28;20202;-82
2022/02/15 06:27:18;;;;;;;17.37;15.57;;;;;;;;;;5035164;28;20199;-82
2022/02/15 06:29:46;;;;;;;19.70;17.57;;;;;;;;;;5035051;28;20203;-82
2022/02/15 06:32:13;;;;;;;20.60;14.43;;;;;;;;;;5034765;28;20226;-83
2022/02/15 06:34:40;;;;;;;13.97;12.47;;;;;;;;;;5034364;28;20209;-83
2022/02/15 06:37:10;;;;;;;15.53;12.17;;;;;;;;;;5034982;28;20237;-83
2022/02/15 06:39:37;;;;;;;19.50;13.00;;;;;;;;;;5034585;28;20670;-83
2022/02/15 06:42:04;;;;;;;16.80;12.33;;;;;;;;;;5034928;28;20583;-84
2022/02/15 06:44:34;;;;;;;20.23;15.23;;;;;;;;;;5037549;28;20210;-84
2022/02/15 06:47:01;;;;;;;21.33;16.77;;;;;;;;;;5042132;28;20210;-85
2022/02/15 06:49:28;;;;;;;20.73;15.30;;;;;;;;;;5034967;28;20582;-85
2022/02/15 06:51:56;;;;;;;21.97;15.60;;;;;;;;;;5034265;28;20241;-86
2022/02/15 06:54:25;;;;;;;18.63;13.40;;;;;;;;;;5034652;28;20199;-86
2022/02/15 06:56:52;;;;;;;32.90;27.07;;;;;;;;;;5035014;28;20191;-87
2022/02/15 06:59:20;;;;;;;26.73;20.83;;;;;;;;;;5034597;28;20201;-86
2022/02/15 07:01:47;;;;;;;21.73;18.67;;;;;;;;;;5034475;28;20198;-86
2022/02/15 07:04:14;;;;;;;22.10;18.53;;;;;;;;;;5034516;28;20233;-86
2022/02/15 07:06:41;;;;;;;24.17;17.53;;;;;;;;;;5034314;28;20249;-86
2022/02/15 07:09:09;;;;;;;20.10;16.10;;;;;;;;;;5034286;28;20191;-86
2022/02/15 07:11:37;;;;;;;21.23;14.70;;;;;;;;;;5034258;28;20207;-86
2022/02/15 07:14:05;;;;;;;20.07;15.07;;;;;;;;;;5034255;28;20465;-86
2022/02/15 07:16:34;;;;;;;18.80;15.57;;;;;;;;;;5034065;28;20214;-86
2022/02/15 07:19:02;;;;;;;23.07;17.47;;;;;;;;;;5034371;28;20202;-86
2022/02/15 07:21:30;;;;;;;24.63;16.80;;;;;;;;;;5034389;28;20202;-87
2022/02/15 07:23:58;;;;;;;25.73;19.00;;;;;;;;;;5034627;28;20619;-86
2022/02/15 07:26:25;;;;;;;22.67;18.70;;;;;;;;;;5034025;28;20242;-86
2022/02/15 07:28:54;;;;;;;31.50;22.60;;;;;;;;;;5032026;28;20202;-86
2022/02/15 07:31:21;;;;;;;27.33;22.10;;;;;;;;;;5033317;28;20199;-86
2022/02/15 07:33:48;;;;;;;27.13;21.73;;;;;;;;;;5033784;28;20238;-86
2022/02/15 07:36:15;;;;;;;23.67;21.10;;;;;;;;;;5033943;28;20195;-86
2022/02/15 07:38:42;;;;;;;23.13;18.60;;;;;;;;;;5033711;28;20207;-86
2022/02/15 07:41:10;;;;;;;21.40;16.93;;;;;;;;;;5033740;28;20202;-87
2022/02/15 07:43:37;;;;;;;20.43;16.70;;;;;;;;;;5034180;28;20199;-86
2022/02/15 07:46:07;;;;;;;17.77;14.87;;;;;;;;;;5044188;28;20234;-86
2022/02/15 07:48:36;;;;;;;16.17;13.00;;;;;;;;;;5033351;28;20187;-86
2022/02/15 07:51:04;;;;;;;19.57;15.00;;;;;;;;;;5033459;28;20659;-86
2022/02/15 07:53:31;;;;;;;23.57;17.67;;;;;;;;;;5033731;28;20218;-86
2022/02/15 07:55:58;;;;;;;21.47;17.47;;;;;;;;;;5033524;28;20202;-86
2022/02/15 07:58:26;;;;;;;18.97;16.97;;;;;;;;;;5033440;28;20213;-86
2022/02/15 08:00:53;;;;;;;41.23;23.67;;;;;;;;;;5033610;28;20252;-86
2022/02/15 08:03:22;;;;;;;34.97;19.73;;;;;;;;;;5033383;28;20202;-86
2022/02/15 08:05:49;;;;;;;16.80;13.03;;;;;;;;;;5033289;28;20234;-86
2022/02/15 08:08:17;;;;;;;16.20;12.00;;;;;;;;;;5033321;28;20574;-86
2022/02/15 08:10:45;;;;;;;15.30;12.97;;;;;;;;;;5033263;28;20244;-86
2022/02/15 08:13:18;;;;;;;15.03;13.27;;;;;;;;;;5033285;28;20658;-86
2022/02/15 08:15:47;;;;;;;17.43;13.93;;;;;;;;;;5033674;28;20225;-86
2022/02/15 08:18:14;;;;;;;16.97;13.50;;;;;;;;;;5033435;28;20265;-87
2022/02/15 08:20:43;;;;;;;15.30;12.40;;;;;;;;;;5033302;28;20209;-86
2022/02/15 08:23:11;;;;;;;17.60;12.30;;;;;;;;;;5033050;28;20198;-86
2022/02/15 08:25:38;;;;;;;13.87;12.50;;;;;;;;;;5033172;28;20317;-87
2022/02/15 08:28:06;;;;;;;16.03;12.03;;;;;;;;;;5033141;28;20205;-87
2022/02/15 08:30:33;;;;;;;17.83;11.87;;;;;;;;;;5032935;28;20195;-86
2022/02/15 08:33:01;;;;;;;12.97;11.17;;;;;;;;;;5032920;28;20218;-87
2022/02/15 08:35:30;;;;;;;13.93;12.43;;;;;;;;;;5031824;28;20685;-86
2022/02/15 08:37:58;;;;;;;15.97;12.67;;;;;;;;;;5032860;28;20571;-86
2022/02/15 08:40:26;;;;;;;18.30;12.80;;;;;;;;;;5032710;28;20229;-87
2022/02/15 08:42:53;;;;;;;12.93;11.43;;;;;;;;;;5033009;28;20285;-87
2022/02/15 08:45:22;;;;;;;14.20;11.23;;;;;;;;;;5032971;28;20294;-87
2022/02/15 08:47:49;;;;;;;16.13;11.97;;;;;;;;;;5041562;28;20205;-86
2022/02/15 08:50:17;;;;;;;16.07;14.37;;;;;;;;;;5052320;28;20198;-87
2022/02/15 08:52:44;;;;;;;16.83;14.00;;;;;;;;;;5051994;28;20234;-87
2022/02/15 08:55:13;;;;;;;11.27;10.10;;;;;;;;;;5052669;28;20198;-87
2022/02/15 08:57:40;;;;;;;13.20;10.50;;;;;;;;;;5052152;28;20202;-87
2022/02/15 09:00:09;;;;;;;12.57;11.27;;;;;;;;;;5052592;28;20284;-87
2022/02/15 09:02:37;;;;;;;16.53;13.10;;;;;;;;;;5052367;28;20198;-87
2022/02/15 09:05:04;;;;;;;11.93;10.30;;;;;;;;;;5052377;28;20635;-87
2022/02/15 09:07:31;;;;;;;17.97;13.90;;;;;;;;;;5052380;28;20208;-87
2022/02/15 09:09:58;;;;;;;11.80;10.60;;;;;;;;;;5052460;28;20204;-87
2022/02/15 09:12:27;;;;;;;36.43;19.47;;;;;;;;;;5052271;28;20204;-87
2022/02/15 09:14:54;;;;;;;14.97;12.27;;;;;;;;;;5052013;28;20720;-87
2022/02/15 09:17:22;;;;;;;15.87;12.77;;;;;;;;;;5052209;28;20194;-87
2022/02/15 09:19:49;;;;;;;33.93;21.03;;;;;;;;;;5051925;28;20284;-87
2022/02/15 09:22:17;;;;;;;15.83;11.20;;;;;;;;;;5052518;28;20709;-88
2022/02/15 09:24:45;;;;;;;14.30;11.63;;;;;;;;;;5052618;28;20194;-88
2022/02/15 09:27:12;;;;;;;16.60;14.20;;;;;;;;;;5052124;28;20208;-87
2022/02/15 09:29:40;;;;;;;12.03;10.37;;;;;;;;;;5052068;28;20239;-87
2022/02/15 09:32:08;;;;;;;13.10;11.40;;;;;;;;;;5052340;28;20201;-87
2022/02/15 09:34:35;;;;;;;13.97;10.17;;;;;;;;;;5052010;28;20222;-87
2022/02/15 09:37:03;;;;;;;13.80;12.07;;;;;;;;;;5052317;28;20678;-88
2022/02/15 09:39:30;;;;;;;13.13;11.83;;;;;;;;;;5052630;28;20280;-88
2022/02/15 09:41:58;;;;;;;16.73;13.53;;;;;;;;;;5052049;28;20233;-88
2022/02/15 09:44:25;;;;;;;12.83;11.07;;;;;;;;;;5052386;28;20247;-88
2022/02/15 09:46:55;;;;;;;14.80;10.77;;;;;;;;;;5049338;28;20206;-87
2022/02/15 09:52:09;;;;;;;21.43;19.23;;;;;;;;;;5032048;28;20241;-87
2022/02/15 09:54:37;;;;;;;14.97;12.03;;;;;;;;;;5031993;28;20222;-88
2022/02/15 09:57:04;;;;;;;17.13;11.50;;;;;;;;;;5032762;28;20356;-89
2022/02/15 09:59:32;;;;;;;13.73;10.70;;;;;;;;;;5032357;28;20551;-87
2022/02/15 10:02:02;;;;;;;26.13;19.33;;;;;;;;;;5031966;28;20199;-88
2022/02/15 10:04:33;;;;;;;30.07;20.50;;;;;;;;;;5032395;28;20217;-88
2022/02/15 10:07:00;;;;;;;16.83;14.37;;;;;;;;;;5051065;28;20218;-88
2022/02/15 10:09:28;;;;;;;18.23;12.23;;;;;;;;;;5051662;28;20205;-88
2022/02/15 10:12:03;;;;;;;14.40;12.90;;;;;;;;;;5055456;28;20194;-88
2022/02/15 10:14:30;;;;;;;13.40;12.10;;;;;;;;;;5055386;28;20251;-88
2022/02/15 10:16:57;;;;;;;14.37;11.80;;;;;;;;;;5055363;28;20293;-88
2022/02/15 10:19:27;;;;;;;18.20;12.70;;;;;;;;;;5055345;28;20205;-88
2022/02/15 10:21:55;;;;;;;15.87;13.67;;;;;;;;;;5055257;28;20193;-88
2022/02/15 10:24:23;;;;;;;15.30;12.27;;;;;;;;;;5055199;28;20190;-88
2022/02/15 10:26:58;;;;;;;18.23;14.00;;;;;;;;;;5055191;28;20201;-88
2022/02/15 10:29:26;;;;;;;19.67;15.33;;;;;;;;;;5055181;28;20202;-88
2022/02/15 10:31:57;;;;;;;19.03;13.60;;;;;;;;;;5055309;28;20194;-88
2022/02/15 10:34:26;;;;;;;17.73;14.13;;;;;;;;;;5056163;28;20647;-87
2022/02/15 10:37:00;;;;;;;16.53;14.23;;;;;;;;;;5056625;28;20198;-89
2022/02/15 10:39:38;;;;;;;16.00;12.90;;;;;;;;;;5055530;28;20186;-89
2022/02/15 10:42:10;;;;;;;17.67;13.90;;;;;;;;;;5055271;28;20233;-89
2022/02/15 10:44:53;;;;;;;20.77;15.30;;;;;;;;;;5055137;28;20263;-88
2022/02/15 10:47:21;;;;;;;17.57;14.40;;;;;;;;;;5053475;28;20285;-88
2022/02/15 10:49:49;;;;;;;15.63;14.03;;;;;;;;;;5054956;28;20273;-88
2022/02/15 10:52:17;;;;;;;17.00;14.40;;;;;;;;;;5054465;28;20230;-88
2022/02/15 10:54:45;;;;;;;21.93;16.73;;;;;;;;;;5054514;28;20222;-88
2022/02/15 10:57:15;;;;;;;22.13;18.57;;;;;;;;;;5055314;28;20276;-89
2022/02/15 10:59:43;;;;;;;18.63;14.27;;;;;;;;;;5055021;28;20240;-89
2022/02/15 11:02:19;;;;;;;16.70;11.93;;;;;;;;;;5055076;28;20570;-88
2022/02/15 11:04:49;;;;;;;14.73;12.33;;;;;;;;;;5054660;28;20764;-89
2022/02/15 11:07:17;;;;;;;15.83;12.43;;;;;;;;;;5054865;28;20190;-88
2022/02/15 11:09:53;;;;;;;13.67;12.17;;;;;;;;;;5054905;28;20219;-88
2022/02/15 11:12:25;;;;;;;16.37;12.73;;;;;;;;;;5054704;28;20197;-88
2022/02/15 11:14:53;;;;;;;19.77;12.00;;;;;;;;;;5054197;28;20252;-88
2022/02/15 11:17:20;;;;;;;14.70;12.90;;;;;;;;;;5054678;28;20574;-88
2022/02/15 11:20:00;;;;;;;16.00;13.23;;;;;;;;;;5054568;28;20193;-88
2022/02/15 11:22:28;;;;;;;17.63;13.43;;;;;;;;;;5053235;28;20189;-88
2022/02/15 11:24:56;;;;;;;18.00;12.10;;;;;;;;;;5054092;28;20229;-88
2022/02/15 11:27:24;;;;;;;14.67;11.83;;;;;;;;;;5054743;28;20194;-89
2022/02/15 11:29:54;;;;;;;16.63;11.23;;;;;;;;;;5054372;28;20241;-89
2022/02/15 11:32:34;;;;;;;19.17;12.60;;;;;;;;;;5054398;28;20203;-88
2022/02/15 11:35:10;;;;;;;18.47;14.27;;;;;;;;;;5053839;28;20241;-88
2022/02/15 11:37:38;;;;;;;12.20;11.03;;;;;;;;;;5053879;28;20235;-88
2022/02/15 11:40:08;;;;;;;13.13;11.50;;;;;;;;;;5054181;28;20201;-89
2022/02/15 11:42:43;;;;;;;14.40;12.40;;;;;;;;;;5054489;28;20183;-90
2022/02/15 11:45:18;;;;;;;14.33;12.53;;;;;;;;;;5054117;28;20197;-89
2022/02/15 11:47:47;;;;;;;18.73;12.73;;;;;;;;;;5053764;28;20254;-88
2022/02/15 11:50:16;;;;;;;15.00;12.47;;;;;;;;;;5053616;28;20202;-88
2022/02/15 11:52:45;;;;;;;13.63;12.07;;;;;;;;;;5053683;28;20237;-89
2022/02/15 11:55:16;;;;;;;12.93;10.87;;;;;;;;;;5054189;28;20222;-88
2022/02/15 11:57:44;;;;;;;13.20;11.70;;;;;;;;;;5053604;28;20247;-89
2022/02/15 12:00:13;;;;;;;13.03;10.80;;;;;;;;;;5053552;28;20196;-88
2022/02/15 12:02:50;;;;;;;13.43;10.43;;;;;;;;;;5053683;28;20252;-88
2022/02/15 12:05:20;;;;;;;33.33;18.87;;;;;;;;;;5053661;28;20182;-89
2022/02/15 12:07:47;;;;;;;46.13;25.87;;;;;;;;;;5053501;28;20198;-89
2022/02/15 12:10:14;;;;;;;27.40;19.43;;;;;;;;;;5054346;28;20289;-88
2022/02/15 12:12:42;;;;;;;34.53;20.90;;;;;;;;;;5053450;28;20200;-90
2022/02/15 12:15:10;;;;;;;29.40;18.03;;;;;;;;;;5053246;28;20226;-89
2022/02/15 12:17:42;;;;;;;27.07;19.33;;;;;;;;;;5053317;28;20190;-89
2022/02/15 12:20:13;;;;;;;23.37;14.90;;;;;;;;;;5053076;28;20183;-89
2022/02/15 12:22:45;;;;;;;19.93;15.67;;;;;;;;;;5053341;28;20184;-89
2022/02/15 12:25:13;;;;;;;20.50;13.77;;;;;;;;;;5053439;28;20236;-89
2022/02/15 12:27:45;;;;;;;16.43;13.03;;;;;;;;;;5053408;28;20674;-89
2022/02/15 12:30:14;;;;;;;13.73;10.73;;;;;;;;;;5052940;28;20227;-88
2022/02/15 12:32:44;;;;;;;22.27;16.27;;;;;;;;;;5053041;28;20186;-89
2022/02/15 12:35:12;;;;;;;15.87;11.70;;;;;;;;;;5053132;28;20674;-89
2022/02/15 12:37:45;;;;;;;36.50;22.20;;;;;;;;;;5052973;28;20202;-89
2022/02/15 12:40:12;;;;;;;17.27;13.17;;;;;;;;;;5053414;28;20198;-90
2022/02/15 12:42:40;;;;;;;32.10;19.97;;;;;;;;;;5053116;28;20198;-89
2022/02/15 12:45:09;;;;;;;28.07;17.50;;;;;;;;;;5053102;28;20291;-89
2022/02/15 12:47:40;;;;;;;16.43;14.13;;;;;;;;;;5053337;28;20198;-89
2022/02/15 12:50:09;;;;;;;31.07;20.43;;;;;;;;;;5052707;28;20178;-89
2022/02/15 12:52:37;;;;;;;26.13;19.43;;;;;;;;;;5052697;28;20669;-89
2022/02/15 12:55:13;;;;;;;33.83;23.13;;;;;;;;;;5053046;28;20281;-89
2022/02/15 12:57:42;;;;;;;34.50;26.97;;;;;;;;;;5052948;28;20187;-90
2022/02/15 13:00:11;;;;;;;44.20;28.20;;;;;;;;;;5052773;28;20198;-89
2022/02/15 13:02:38;;;;;;;30.93;20.60;;;;;;;;;;5052993;28;20202;-89
2022/02/15 13:05:07;;;;;;;49.03;26.40;;;;;;;;;;5052879;28;20216;-89
2022/02/15 13:07:45;;;;;;;57.07;30.27;;;;;;;;;;5052335;28;20598;-89
2022/02/15 13:10:14;;;;;;;18.80;14.77;;;;;;;;;;5052770;28;20197;-89
2022/02/15 13:12:41;;;;;;;17.77;12.73;;;;;;;;;;5052500;28;20256;-90
2022/02/15 13:15:10;;;;;;;24.03;16.73;;;;;;;;;;5052658;28;20228;-88
2022/02/15 13:17:43;;;;;;;16.57;12.70;;;;;;;;;;5052257;28;20247;-89
2022/02/15 13:20:17;;;;;;;21.90;17.00;;;;;;;;;;5052299;28;20194;-89
2022/02/15 13:22:44;;;;;;;13.27;10.60;;;;;;;;;;5052889;28;20690;-89
2022/02/15 13:25:13;;;;;;;15.90;13.03;;;;;;;;;;5052917;28;20194;-89
2022/02/15 13:27:41;;;;;;;46.07;23.40;;;;;;;;;;5052533;28;20186;-89
2022/02/15 13:30:25;;;;;;;27.43;18.33;;;;;;;;;;5052422;28;20194;-88
2022/02/15 13:33:03;;;;;;;13.90;11.27;;;;;;;;;;5052167;28;20273;-88
2022/02/15 13:35:31;;;;;;;24.20;17.53;;;;;;;;;;5052172;28;20210;-88
2022/02/15 13:37:58;;;;;;;39.47;25.87;;;;;;;;;;5052212;28;20200;-88
2022/02/15 13:40:28;;;;;;;35.77;23.73;;;;;;;;;;5052401;28;20201;-88
2022/02/15 13:42:56;;;;;;;37.23;24.03;;;;;;;;;;5052678;28;20194;-90
2022/02/15 13:45:23;;;;;;;15.47;12.70;;;;;;;;;;5053861;28;20239;-88
2022/02/15 13:47:50;;;;;;;16.40;12.20;;;;;;;;;;5055997;28;20202;-89
2022/02/15 13:50:18;;;;;;;17.50;13.90;;;;;;;;;;5056387;28;20201;-89
2022/02/15 13:52:45;;;;;;;39.33;27.60;;;;;;;;;;5056267;28;20768;-89
2022/02/15 13:55:13;;;;;;;34.80;22.67;;;;;;;;;;5056311;28;20217;-88
2022/02/15 13:57:41;;;;;;;36.57;25.20;;;;;;;;;;5056218;28;20236;-88
2022/02/15 14:00:11;;;;;;;13.37;11.87;;;;;;;;;;5056252;28;20247;-89
2022/02/15 14:02:39;;;;;;;18.53;14.17;;;;;;;;;;5056167;28;20201;-88
2022/02/15 14:05:09;;;;;;;16.90;13.23;;;;;;;;;;5055990;28;20193;-89
2022/02/15 14:07:37;;;;;;;17.03;13.17;;;;;;;;;;5056166;28;20202;-88
2022/02/15 14:10:05;;;;;;;26.17;18.47;;;;;;;;;;5055607;28;20212;-88
2022/02/15 14:12:37;;;;;;;29.07;20.37;;;;;;;;;;5056064;28;20206;-88
2022/02/15 14:15:09;;;;;;;23.03;16.90;;;;;;;;;;5056299;28;20579;-88
2022/02/15 14:17:41;;;;;;;30.10;21.90;;;;;;;;;;5055587;28;20190;-88
2022/02/15 14:20:11;;;;;;;28.33;20.90;;;;;;;;;;5055906;28;20268;-88
2022/02/15 14:22:40;;;;;;;29.93;21.70;;;;;;;;;;5055803;28;20582;-88
2022/02/15 14:25:08;;;;;;;29.83;21.57;;;;;;;;;;5055831;28;20198;-89
2022/02/15 14:27:36;;;;;;;92.00;55.40;;;;;;;;;;5055739;28;20202;-89
2022/02/15 14:30:04;;;;;;;50.47;35.73;;;;;;;;;;5055297;28;20208;-88
2022/02/15 14:32:33;;;;;;;36.60;26.93;;;;;;;;;;5055543;28;20194;-90
2022/02/15 14:35:00;;;;;;;28.40;23.87;;;;;;;;;;5055659;28;20665;-88
2022/02/15 14:37:28;;;;;;;29.10;24.40;;;;;;;;;;5055581;28;20581;-89
2022/02/15 14:39:55;;;;;;;26.40;21.50;;;;;;;;;;5055442;28;20198;-88